Mike Weisend — WDF7611 — position and weather

sailwx.info

Track history (hours):
 
Tides and Currents Weather Stations Pressure Air Temp Water Temp Dewpoint Dewpoint Depression Visibility Wind Speed Wind Dir Waves Ship Positions

Mike Weisend

Owner: AEP River Operations LLC, Chesterfield, MO. More information available from US FCC via Universal Licensing System and Coast Guard Vessel Documentation Center.

Last reported at 2015-May-18 04:33 UTC. Time now 2015-May-30 08:31 UTC.
Position N 30°42' W 091°21'.
Warning: this ship's position is 12 days out of date.

Length 54 m; draft 3 m.

Type: Towing. MMSI: 367486280.

Date/timePositionNaut miles runAvg speedWind from/ knotsBaromVisibWave heightAir tempDewpointWater temp
2015-May-18 04:33N 30°42' W 091°21'4 3.6
2015-May-18 03:31N 30°39' W 091°18'3 2.8
2015-May-18 02:33N 30°36' W 091°18'2 2.4
2015-May-18 01:33N 30°34' W 091°17'3 2.9
2015-May-18 00:34N 30°32' W 091°15'2 2.0
2015-May-17 23:34N 30°30' W 091°16'3 3.3
2015-May-17 22:33N 30°31' W 091°12'3 3.3
2015-May-17 21:33N 30°28' W 091°12'4 3.6
2015-May-17 20:33N 30°24' W 091°12'1 0.6
2015-May-17 19:32N 30°24' W 091°13'0 0.0
2015-May-17 18:33N 30°24' W 091°13'0 0.0
2015-May-17 17:33N 30°24' W 091°13'0 0.0
2015-May-17 16:33N 30°24' W 091°13'0 0.0
2015-May-17 15:33N 30°23' W 091°13'3 3.0
2015-May-17 14:33N 30°21' W 091°14'4 3.7
2015-May-17 13:33N 30°21' W 091°10'2 2.1
2015-May-17 12:33N 30°19' W 091°11'4 2.0
2015-May-17 10:32N 30°16' W 091°08'4 1.7
2015-May-17 08:05N 30°12' W 091°06'9 0.4
2015-May-16 09:31N 30°18' W 091°14'4 4.2
2015-May-16 08:30N 30°21' W 091°10'4 4.4
2015-May-16 07:33N 30°23' W 091°14'2 1.9
2015-May-16 06:33N 30°24' W 091°12'4 3.8
2015-May-16 05:33N 30°28' W 091°12'3 3.2
2015-May-16 04:33N 30°31' W 091°14'2 1.7
2015-May-16 03:33N 30°32' W 091°16'5 4.9
2015-May-16 02:33N 30°36' W 091°19'6 5.7
2015-May-16 01:34N 30°41' W 091°21'8 5.4
2015-May-16 00:10N 30°45' W 091°28'5 7.4
2015-May-15 23:27N 30°44' W 091°35'  
Track history (hours):
 
Tides and Currents Weather Stations Pressure Air Temp Water Temp Dewpoint Dewpoint Depression Visibility Wind Speed Wind Dir Waves Ship Positions

Mike Weisend

Owner: AEP River Operations LLC, Chesterfield, MO. More information available from US FCC via Universal Licensing System and Coast Guard Vessel Documentation Center.

Last reported at 2015-May-18 04:33 UTC. Time now 2015-May-30 08:31 UTC.
Position N 30°42' W 091°21'.
Warning: this ship's position is 12 days out of date.

Length 54 m; draft 3 m.

Type: Towing. MMSI: 367486280.

Date/timePositionNaut miles runAvg speedWind from/ knotsBaromVisibWave heightAir tempDewpointWater temp
2015-May-18 04:33N 30°42' W 091°21'4 3.6
2015-May-18 03:31N 30°39' W 091°18'3 2.8
2015-May-18 02:33N 30°36' W 091°18'2 2.4
2015-May-18 01:33N 30°34' W 091°17'3 2.9
2015-May-18 00:34N 30°32' W 091°15'2 2.0
2015-May-17 23:34N 30°30' W 091°16'3 3.3
2015-May-17 22:33N 30°31' W 091°12'3 3.3
2015-May-17 21:33N 30°28' W 091°12'4 3.6
2015-May-17 20:33N 30°24' W 091°12'1 0.6
2015-May-17 19:32N 30°24' W 091°13'0 0.0
2015-May-17 18:33N 30°24' W 091°13'0 0.0
2015-May-17 17:33N 30°24' W 091°13'0 0.0
2015-May-17 16:33N 30°24' W 091°13'0 0.0
2015-May-17 15:33N 30°23' W 091°13'3 3.0
2015-May-17 14:33N 30°21' W 091°14'4 3.7
2015-May-17 13:33N 30°21' W 091°10'2 2.1
2015-May-17 12:33N 30°19' W 091°11'4 2.0
2015-May-17 10:32N 30°16' W 091°08'4 1.7
2015-May-17 08:05N 30°12' W 091°06'9 0.4
2015-May-16 09:31N 30°18' W 091°14'4 4.2
2015-May-16 08:30N 30°21' W 091°10'4 4.4
2015-May-16 07:33N 30°23' W 091°14'2 1.9
2015-May-16 06:33N 30°24' W 091°12'4 3.8
2015-May-16 05:33N 30°28' W 091°12'3 3.2
2015-May-16 04:33N 30°31' W 091°14'2 1.7
2015-May-16 03:33N 30°32' W 091°16'5 4.9
2015-May-16 02:33N 30°36' W 091°19'6 5.7
2015-May-16 01:34N 30°41' W 091°21'8 5.4
2015-May-16 00:10N 30°45' W 091°28'5 7.4
2015-May-15 23:27N 30°44' W 091°35'  

Dump ship's entire track history